Aviation Digital Data Service (ADDS)

Output produced by METARs form (0656 UTC 20 March 2019)
found at http://www.aviationweather.gov/metar/data/
 
METAR text: RJKI 200600Z AUTO 16010KT 110V200 9999 FEW032 22/14 Q1014
Conditions at: RJKI (KIKAI ISLAND , JP) observed 0600 UTC 20 March 2019
Temperature: 22.0°C (72°F)
Dewpoint: 14.0°C (57°F) [RH = 60%]
Pressure (altimeter): 29.94 inches Hg (1014.0 mb)
Winds: from the SSE (160 degrees) at 12 MPH (10 knots; 5.1 m/s)
Visibility: 6 or more miles (10+ km)
Ceiling: at least 12,000 feet AGL
Clouds: few clouds at 3200 feet AGL
Weather: no significant weather observed at this time

METAR text: RJKI 200500Z AUTO 15009KT 090V200 9999 SCT034 22/14 Q1015
Conditions at: RJKI (KIKAI ISLAND , JP) observed 0500 UTC 20 March 2019
Temperature: 22.0°C (72°F)
Dewpoint: 14.0°C (57°F) [RH = 60%]
Pressure (altimeter): 29.97 inches Hg (1015.0 mb)
Winds: from the SSE (150 degrees) at 10 MPH (9 knots; 4.6 m/s)
Visibility: 6 or more miles (10+ km)
Ceiling: at least 12,000 feet AGL
Clouds: scattered clouds at 3400 feet AGL
Weather: no significant weather observed at this time

METAR text: RJKI 200400Z AUTO 16009KT 110V210 9999 FEW033 23/14 Q1015
Conditions at: RJKI (KIKAI ISLAND , JP) observed 0400 UTC 20 March 2019
Temperature: 23.0°C (73°F)
Dewpoint: 14.0°C (57°F) [RH = 57%]
Pressure (altimeter): 29.97 inches Hg (1015.0 mb)
Winds: from the SSE (160 degrees) at 10 MPH (9 knots; 4.6 m/s)
Visibility: 6 or more miles (10+ km)
Ceiling: at least 12,000 feet AGL
Clouds: few clouds at 3300 feet AGL
Weather: no significant weather observed at this time

METAR text: RJKI 200300Z AUTO 13009KT 090V170 9999 NCD 22/13 Q1016
Conditions at: RJKI (KIKAI ISLAND , JP) observed 0300 UTC 20 March 2019
Temperature: 22.0°C (72°F)
Dewpoint: 13.0°C (55°F) [RH = 57%]
Pressure (altimeter): 30.00 inches Hg (1016.0 mb)
Winds: from the SE (130 degrees) at 10 MPH (9 knots; 4.6 m/s)
Visibility: 6 or more miles (10+ km)
Ceiling: at least 12,000 feet AGL
Clouds: sky clear below 12,000 feet AGL
Weather: no significant weather observed at this time

METAR text: RJKI 200200Z AUTO 13008KT 070V170 9999 FEW038 22/13 Q1017
Conditions at: RJKI (KIKAI ISLAND , JP) observed 0200 UTC 20 March 2019
Temperature: 22.0°C (72°F)
Dewpoint: 13.0°C (55°F) [RH = 57%]
Pressure (altimeter): 30.03 inches Hg (1017.0 mb)
Winds: from the SE (130 degrees) at 9 MPH (8 knots; 4.1 m/s)
Visibility: 6 or more miles (10+ km)
Ceiling: at least 12,000 feet AGL
Clouds: few clouds at 3800 feet AGL
Weather: no significant weather observed at this time

METAR text: RJKI 200100Z AUTO 11010KT 070V150 9999 FEW036 22/13 Q1017
Conditions at: RJKI (KIKAI ISLAND , JP) observed 0100 UTC 20 March 2019
Temperature: 22.0°C (72°F)
Dewpoint: 13.0°C (55°F) [RH = 57%]
Pressure (altimeter): 30.03 inches Hg (1017.0 mb)
Winds: from the ESE (110 degrees) at 12 MPH (10 knots; 5.1 m/s)
Visibility: 6 or more miles (10+ km)
Ceiling: at least 12,000 feet AGL
Clouds: few clouds at 3600 feet AGL
Weather: no significant weather observed at this time

METAR text: RJKI 200000Z AUTO 12006KT 070V170 9999 FEW036 21/13 Q1017
Conditions at: RJKI (KIKAI ISLAND , JP) observed 0000 UTC 20 March 2019
Temperature: 21.0°C (70°F)
Dewpoint: 13.0°C (55°F) [RH = 60%]
Pressure (altimeter): 30.03 inches Hg (1017.0 mb)
Winds: from the ESE (120 degrees) at 7 MPH (6 knots; 3.1 m/s)
Visibility: 6 or more miles (10+ km)
Ceiling: at least 12,000 feet AGL
Clouds: few clouds at 3600 feet AGL
Weather: no significant weather observed at this time

METAR text: RJKI 192300Z AUTO VRB02KT 9999 NCD 19/13 Q1017
Conditions at: RJKI (KIKAI ISLAND , JP) observed 2300 UTC 19 March 2019
Temperature: 19.0°C (66°F)
Dewpoint: 13.0°C (55°F) [RH = 68%]
Pressure (altimeter): 30.03 inches Hg (1017.0 mb)
Winds: variable direction winds at 2 MPH (2 knots; 1.0 m/s)
Visibility: 6 or more miles (10+ km)
Ceiling: at least 12,000 feet AGL
Clouds: sky clear below 12,000 feet AGL
Weather: no significant weather observed at this time

METAR text: RJKI 192200Z AUTO 12005KT 9999 NCD 14/11 Q1017
Conditions at: RJKI (KIKAI ISLAND , JP) observed 2200 UTC 19 March 2019
Temperature: 14.0°C (57°F)
Dewpoint: 11.0°C (52°F) [RH = 82%]
Pressure (altimeter): 30.03 inches Hg (1017.0 mb)
Winds: from the ESE (120 degrees) at 6 MPH (5 knots; 2.6 m/s)
Visibility: 6 or more miles (10+ km)
Ceiling: at least 12,000 feet AGL
Clouds: sky clear below 12,000 feet AGL
Weather: no significant weather observed at this time

METAR text: RJKI 192100Z AUTO 12004KT 9999 NCD 13/11 Q1017
Conditions at: RJKI (KIKAI ISLAND , JP) observed 2100 UTC 19 March 2019
Temperature: 13.0°C (55°F)
Dewpoint: 11.0°C (52°F) [RH = 88%]
Pressure (altimeter): 30.03 inches Hg (1017.0 mb)
Winds: from the ESE (120 degrees) at 5 MPH (4 knots; 2.1 m/s)
Visibility: 6 or more miles (10+ km)
Ceiling: at least 12,000 feet AGL
Clouds: sky clear below 12,000 feet AGL
Weather: no significant weather observed at this time

METAR text: RJKI 192000Z AUTO 14003KT 9999 FEW035 14/12 Q1017
Conditions at: RJKI (KIKAI ISLAND , JP) observed 2000 UTC 19 March 2019
Temperature: 14.0°C (57°F)
Dewpoint: 12.0°C (54°F) [RH = 88%]
Pressure (altimeter): 30.03 inches Hg (1017.0 mb)
Winds: from the SE (140 degrees) at 3 MPH (3 knots; 1.5 m/s)
Visibility: 6 or more miles (10+ km)
Ceiling: at least 12,000 feet AGL
Clouds: few clouds at 3500 feet AGL
Weather: no significant weather observed at this time

METAR text: RJKI 191900Z AUTO VRB02KT 9999 BKN032 13/12 Q1016
Conditions at: RJKI (KIKAI ISLAND , JP) observed 1900 UTC 19 March 2019
Temperature: 13.0°C (55°F)
Dewpoint: 12.0°C (54°F) [RH = 94%]
Pressure (altimeter): 30.00 inches Hg (1016.0 mb)
Winds: variable direction winds at 2 MPH (2 knots; 1.0 m/s)
Visibility: 6 or more miles (10+ km)
Ceiling: 3200 feet AGL
Clouds: broken clouds at 3200 feet AGL
Weather: no significant weather observed at this time

METAR text: RJKI 191800Z AUTO 13003KT 9999 BKN035 14/12 Q1016
Conditions at: RJKI (KIKAI ISLAND , JP) observed 1800 UTC 19 March 2019
Temperature: 14.0°C (57°F)
Dewpoint: 12.0°C (54°F) [RH = 88%]
Pressure (altimeter): 30.00 inches Hg (1016.0 mb)
Winds: from the SE (130 degrees) at 3 MPH (3 knots; 1.5 m/s)
Visibility: 6 or more miles (10+ km)
Ceiling: 3500 feet AGL
Clouds: broken clouds at 3500 feet AGL
Weather: no significant weather observed at this time

METAR text: RJKI 191700Z AUTO 02006KT 330V050 9999 FEW032 17/12 Q1017
Conditions at: RJKI (KIKAI ISLAND , JP) observed 1700 UTC 19 March 2019
Temperature: 17.0°C (63°F)
Dewpoint: 12.0°C (54°F) [RH = 72%]
Pressure (altimeter): 30.03 inches Hg (1017.0 mb)
Winds: from the NNE (20 degrees) at 7 MPH (6 knots; 3.1 m/s)
Visibility: 6 or more miles (10+ km)
Ceiling: at least 12,000 feet AGL
Clouds: few clouds at 3200 feet AGL
Weather: no significant weather observed at this time

METAR text: RJKI 191600Z AUTO 02010KT 9999 FEW034 17/11 Q1017
Conditions at: RJKI (KIKAI ISLAND , JP) observed 1600 UTC 19 March 2019
Temperature: 17.0°C (63°F)
Dewpoint: 11.0°C (52°F) [RH = 68%]
Pressure (altimeter): 30.03 inches Hg (1017.0 mb)
Winds: from the NNE (20 degrees) at 12 MPH (10 knots; 5.1 m/s)
Visibility: 6 or more miles (10+ km)
Ceiling: at least 12,000 feet AGL
Clouds: few clouds at 3400 feet AGL
Weather: no significant weather observed at this time

METAR text: RJKI 191500Z AUTO 02010KT 9999 FEW036 17/11 Q1017
Conditions at: RJKI (KIKAI ISLAND , JP) observed 1500 UTC 19 March 2019
Temperature: 17.0°C (63°F)
Dewpoint: 11.0°C (52°F) [RH = 68%]
Pressure (altimeter): 30.03 inches Hg (1017.0 mb)
Winds: from the NNE (20 degrees) at 12 MPH (10 knots; 5.1 m/s)
Visibility: 6 or more miles (10+ km)
Ceiling: at least 12,000 feet AGL
Clouds: few clouds at 3600 feet AGL
Weather: no significant weather observed at this time

METAR text: RJKI 191400Z AUTO 01011KT 9999 NCD 18/10 Q1017
Conditions at: RJKI (KIKAI ISLAND , JP) observed 1400 UTC 19 March 2019
Temperature: 18.0°C (64°F)
Dewpoint: 10.0°C (50°F) [RH = 59%]
Pressure (altimeter): 30.03 inches Hg (1017.0 mb)
Winds: from the N (10 degrees) at 13 MPH (11 knots; 5.7 m/s)
Visibility: 6 or more miles (10+ km)
Ceiling: at least 12,000 feet AGL
Clouds: sky clear below 12,000 feet AGL
Weather: no significant weather observed at this time

METAR text: RJKI 191300Z AUTO 35011KT 9999 FEW037 18/10 Q1017
Conditions at: RJKI (KIKAI ISLAND , JP) observed 1300 UTC 19 March 2019
Temperature: 18.0°C (64°F)
Dewpoint: 10.0°C (50°F) [RH = 59%]
Pressure (altimeter): 30.03 inches Hg (1017.0 mb)
Winds: from the N (350 degrees) at 13 MPH (11 knots; 5.7 m/s)
Visibility: 6 or more miles (10+ km)
Ceiling: at least 12,000 feet AGL
Clouds: few clouds at 3700 feet AGL
Weather: no significant weather observed at this time

METAR text: RJKI 191200Z AUTO 34012KT 9999 FEW037 18/12 Q1017
Conditions at: RJKI (KIKAI ISLAND , JP) observed 1200 UTC 19 March 2019
Temperature: 18.0°C (64°F)
Dewpoint: 12.0°C (54°F) [RH = 68%]
Pressure (altimeter): 30.03 inches Hg (1017.0 mb)
Winds: from the NNW (340 degrees) at 14 MPH (12 knots; 6.2 m/s)
Visibility: 6 or more miles (10+ km)
Ceiling: at least 12,000 feet AGL
Clouds: few clouds at 3700 feet AGL
Weather: no significant weather observed at this time

METAR text: RJKI 191100Z AUTO 34014KT 9999 BKN036 18/11 Q1016
Conditions at: RJKI (KIKAI ISLAND , JP) observed 1100 UTC 19 March 2019
Temperature: 18.0°C (64°F)
Dewpoint: 11.0°C (52°F) [RH = 64%]
Pressure (altimeter): 30.00 inches Hg (1016.0 mb)
Winds: from the NNW (340 degrees) at 16 MPH (14 knots; 7.2 m/s)
Visibility: 6 or more miles (10+ km)
Ceiling: 3600 feet AGL
Clouds: broken clouds at 3600 feet AGL
Weather: no significant weather observed at this time

METAR text: RJKI 191000Z AUTO 35013KT 9999 FEW037 18/11 Q1016
Conditions at: RJKI (KIKAI ISLAND , JP) observed 1000 UTC 19 March 2019
Temperature: 18.0°C (64°F)
Dewpoint: 11.0°C (52°F) [RH = 64%]
Pressure (altimeter): 30.00 inches Hg (1016.0 mb)
Winds: from the N (350 degrees) at 15 MPH (13 knots; 6.7 m/s)
Visibility: 6 or more miles (10+ km)
Ceiling: at least 12,000 feet AGL
Clouds: few clouds at 3700 feet AGL
Weather: no significant weather observed at this time

METAR text: RJKI 190900Z AUTO 34016KT 9999 FEW036 18/12 Q1015
Conditions at: RJKI (KIKAI ISLAND , JP) observed 0900 UTC 19 March 2019
Temperature: 18.0°C (64°F)
Dewpoint: 12.0°C (54°F) [RH = 68%]
Pressure (altimeter): 29.97 inches Hg (1015.0 mb)
Winds: from the NNW (340 degrees) at 18 MPH (16 knots; 8.2 m/s)
Visibility: 6 or more miles (10+ km)
Ceiling: at least 12,000 feet AGL
Clouds: few clouds at 3600 feet AGL
Weather: no significant weather observed at this time

METAR text: RJKI 190800Z AUTO 32017KT 9999 FEW031 SCT034 BKN047 19/13 Q1015
Conditions at: RJKI (KIKAI ISLAND , JP) observed 0800 UTC 19 March 2019
Temperature: 19.0°C (66°F)
Dewpoint: 13.0°C (55°F) [RH = 68%]
Pressure (altimeter): 29.97 inches Hg (1015.0 mb)
Winds: from the NW (320 degrees) at 20 MPH (17 knots; 8.7 m/s)
Visibility: 6 or more miles (10+ km)
Ceiling: 4700 feet AGL
Clouds: few clouds at 3100 feet AGL
scattered clouds at 3400 feet AGL
broken clouds at 4700 feet AGL
Weather: no significant weather observed at this time

METAR text: RJKI 190700Z AUTO 32018KT 9999 SCT031 20/14 Q1014
Conditions at: RJKI (KIKAI ISLAND , JP) observed 0700 UTC 19 March 2019
Temperature: 20.0°C (68°F)
Dewpoint: 14.0°C (57°F) [RH = 68%]
Pressure (altimeter): 29.94 inches Hg (1014.0 mb)
Winds: from the NW (320 degrees) at 21 MPH (18 knots; 9.3 m/s)
Visibility: 6 or more miles (10+ km)
Ceiling: at least 12,000 feet AGL
Clouds: scattered clouds at 3100 feet AGL
Weather: no significant weather observed at this time

METAR text: RJKI 190635Z AUTO 32018G28KT 9999 SCT035 BKN038 BKN050 21/13 Q1014 RMK A2995
Conditions at: RJKI (KIKAI ISLAND , JP) observed 0635 UTC 19 March 2019
Temperature: 21.0°C (70°F)
Dewpoint: 13.0°C (55°F) [RH = 60%]
Pressure (altimeter): 29.94 inches Hg (1014.0 mb)
Winds: from the NW (320 degrees) at 21 MPH (18 knots; 9.3 m/s)
gusting to 32 MPH (28 knots; 14.4 m/s)
Visibility: 6 or more miles (10+ km)
Ceiling: 3800 feet AGL
Clouds: scattered clouds at 3500 feet AGL
broken clouds at 3800 feet AGL
broken clouds at 5000 feet AGL
Weather: no significant weather observed at this time

METAR text: RJKI 190600Z AUTO 32020KT 9999 FEW029 SCT039 BKN046 21/13 Q1014
Conditions at: RJKI (KIKAI ISLAND , JP) observed 0600 UTC 19 March 2019
Temperature: 21.0°C (70°F)
Dewpoint: 13.0°C (55°F) [RH = 60%]
Pressure (altimeter): 29.94 inches Hg (1014.0 mb)
Winds: from the NW (320 degrees) at 23 MPH (20 knots; 10.3 m/s)
Visibility: 6 or more miles (10+ km)
Ceiling: 4600 feet AGL
Clouds: few clouds at 2900 feet AGL
scattered clouds at 3900 feet AGL
broken clouds at 4600 feet AGL
Weather: no significant weather observed at this time

METAR text: RJKI 190500Z AUTO 32018KT 9999 FEW027 SCT034 BKN044 20/14 Q1014
Conditions at: RJKI (KIKAI ISLAND , JP) observed 0500 UTC 19 March 2019
Temperature: 20.0°C (68°F)
Dewpoint: 14.0°C (57°F) [RH = 68%]
Pressure (altimeter): 29.94 inches Hg (1014.0 mb)
Winds: from the NW (320 degrees) at 21 MPH (18 knots; 9.3 m/s)
Visibility: 6 or more miles (10+ km)
Ceiling: 4400 feet AGL
Clouds: few clouds at 2700 feet AGL
scattered clouds at 3400 feet AGL
broken clouds at 4400 feet AGL
Weather: no significant weather observed at this time

METAR text: RJKI 190400Z AUTO 32018KT 9999 SCT025 BKN035 21/15 Q1014
Conditions at: RJKI (KIKAI ISLAND , JP) observed 0400 UTC 19 March 2019
Temperature: 21.0°C (70°F)
Dewpoint: 15.0°C (59°F) [RH = 69%]
Pressure (altimeter): 29.94 inches Hg (1014.0 mb)
Winds: from the NW (320 degrees) at 21 MPH (18 knots; 9.3 m/s)
Visibility: 6 or more miles (10+ km)
Ceiling: 3500 feet AGL
Clouds: scattered clouds at 2500 feet AGL
broken clouds at 3500 feet AGL
Weather: no significant weather observed at this time

METAR text: RJKI 190300Z AUTO 31019KT 9999 SCT022 BKN032 BKN038 21/16 Q1014
Conditions at: RJKI (KIKAI ISLAND , JP) observed 0300 UTC 19 March 2019
Temperature: 21.0°C (70°F)
Dewpoint: 16.0°C (61°F) [RH = 73%]
Pressure (altimeter): 29.94 inches Hg (1014.0 mb)
Winds: from the NW (310 degrees) at 22 MPH (19 knots; 9.8 m/s)
Visibility: 6 or more miles (10+ km)
Ceiling: 3200 feet AGL
Clouds: scattered clouds at 2200 feet AGL
broken clouds at 3200 feet AGL
broken clouds at 3800 feet AGL
Weather: no significant weather observed at this time

METAR text: RJKI 190200Z AUTO 27016KT 9999 FEW031 SCT035 22/15 Q1014
Conditions at: RJKI (KIKAI ISLAND , JP) observed 0200 UTC 19 March 2019
Temperature: 22.0°C (72°F)
Dewpoint: 15.0°C (59°F) [RH = 65%]
Pressure (altimeter): 29.94 inches Hg (1014.0 mb)
Winds: from the W (270 degrees) at 18 MPH (16 knots; 8.2 m/s)
Visibility: 6 or more miles (10+ km)
Ceiling: at least 12,000 feet AGL
Clouds: few clouds at 3100 feet AGL
scattered clouds at 3500 feet AGL
Weather: no significant weather observed at this time

METAR text: RJKI 190100Z AUTO 28018KT 9999 FEW024 SCT033 21/14 Q1014
Conditions at: RJKI (KIKAI ISLAND , JP) observed 0100 UTC 19 March 2019
Temperature: 21.0°C (70°F)
Dewpoint: 14.0°C (57°F) [RH = 64%]
Pressure (altimeter): 29.94 inches Hg (1014.0 mb)
Winds: from the W (280 degrees) at 21 MPH (18 knots; 9.3 m/s)
Visibility: 6 or more miles (10+ km)
Ceiling: at least 12,000 feet AGL
Clouds: few clouds at 2400 feet AGL
scattered clouds at 3300 feet AGL
Weather: no significant weather observed at this time

METAR text: RJKI 190000Z AUTO 27022KT 9999 FEW029 SCT038 21/15 Q1013
Conditions at: RJKI (KIKAI ISLAND , JP) observed 0000 UTC 19 March 2019
Temperature: 21.0°C (70°F)
Dewpoint: 15.0°C (59°F) [RH = 69%]
Pressure (altimeter): 29.91 inches Hg (1013.0 mb)
Winds: from the W (270 degrees) at 25 MPH (22 knots; 11.3 m/s)
Visibility: 6 or more miles (10+ km)
Ceiling: at least 12,000 feet AGL
Clouds: few clouds at 2900 feet AGL
scattered clouds at 3800 feet AGL
Weather: no significant weather observed at this time

METAR text: RJKI 182300Z AUTO 28021KT 9999 FEW026 SCT029 BKN037 20/15 Q1013
Conditions at: RJKI (KIKAI ISLAND , JP) observed 2300 UTC 18 March 2019
Temperature: 20.0°C (68°F)
Dewpoint: 15.0°C (59°F) [RH = 73%]
Pressure (altimeter): 29.91 inches Hg (1013.0 mb)
Winds: from the W (280 degrees) at 24 MPH (21 knots; 10.8 m/s)
Visibility: 6 or more miles (10+ km)
Ceiling: 3700 feet AGL
Clouds: few clouds at 2600 feet AGL
scattered clouds at 2900 feet AGL
broken clouds at 3700 feet AGL
Weather: no significant weather observed at this time

METAR text: RJKI 182200Z AUTO 27018KT 9999 FEW025 SCT029 BKN033 20/16 Q1012
Conditions at: RJKI (KIKAI ISLAND , JP) observed 2200 UTC 18 March 2019
Temperature: 20.0°C (68°F)
Dewpoint: 16.0°C (61°F) [RH = 78%]
Pressure (altimeter): 29.88 inches Hg (1012.0 mb)
Winds: from the W (270 degrees) at 21 MPH (18 knots; 9.3 m/s)
Visibility: 6 or more miles (10+ km)
Ceiling: 3300 feet AGL
Clouds: few clouds at 2500 feet AGL
scattered clouds at 2900 feet AGL
broken clouds at 3300 feet AGL
Weather: no significant weather observed at this time

METAR text: RJKI 182100Z AUTO 27017KT 9999 FEW023 SCT037 BKN040 20/17 Q1011
Conditions at: RJKI (KIKAI ISLAND , JP) observed 2100 UTC 18 March 2019
Temperature: 20.0°C (68°F)
Dewpoint: 17.0°C (63°F) [RH = 83%]
Pressure (altimeter): 29.85 inches Hg (1011.0 mb)
Winds: from the W (270 degrees) at 20 MPH (17 knots; 8.7 m/s)
Visibility: 6 or more miles (10+ km)
Ceiling: 4000 feet AGL
Clouds: few clouds at 2300 feet AGL
scattered clouds at 3700 feet AGL
broken clouds at 4000 feet AGL
Weather: no significant weather observed at this time

METAR text: RJKI 182000Z AUTO 27016KT 9999 FEW021 SCT023 BKN027 //////TCU 21/18 Q1010
Conditions at: RJKI (KIKAI ISLAND , JP) observed 2000 UTC 18 March 2019
Temperature: 21.0°C (70°F)
Dewpoint: 18.0°C (64°F) [RH = 83%]
Pressure (altimeter): 29.82 inches Hg (1010.0 mb)
Winds: from the W (270 degrees) at 18 MPH (16 knots; 8.2 m/s)
Visibility: 6 or more miles (10+ km)
Ceiling: 2700 feet AGL
Clouds: few clouds at 2100 feet AGL
scattered clouds at 2300 feet AGL
broken clouds at 2700 feet AGL
Weather: no significant weather observed at this time

METAR text: RJKI 181900Z AUTO 27027G40KT 0600 +RA FG FEW003 BKN017 OVC030 //////TCU 20/19 Q1010
Conditions at: RJKI (KIKAI ISLAND , JP) observed 1900 UTC 18 March 2019
Temperature: 20.0°C (68°F)
Dewpoint: 19.0°C (66°F) [RH = 94%]
Pressure (altimeter): 29.82 inches Hg (1010.0 mb)
Winds: from the W (270 degrees) at 31 MPH (27 knots; 13.9 m/s)
gusting to 46 MPH (40 knots; 20.6 m/s)
Visibility: 0.37 miles (0.60 km)
Ceiling: 1700 feet AGL
Clouds: few clouds at 300 feet AGL
broken clouds at 1700 feet AGL
overcast cloud deck at 3000 feet AGL
Weather: +RA FG  (heavy rain, fog)